Time;durP1;ratioP1;P1;durP2;ratioP2;P2;SDS_P1;SDS_P2;PMS_P1;PMS_P2;Temp;Humidity;BMP_temperature;BMP_pressure;BME280_temperature;BME280_humidity;BME280_pressure;Samples;Min_cycle;Max_cycle;Signal;HPM_P1;HPM_P2
2022/01/16 00:04:06;;;;;;;36.83;14.80;;;;;;;0.25;100.00;101511.37;3577957;81;98975;-83
2022/01/16 00:09:07;;;;;;;29.02;12.23;;;;;;;0.23;100.00;101504.09;3581541;81;99051;-83
2022/01/16 00:14:08;;;;;;;31.23;12.27;;;;;;;0.25;100.00;101499.19;3585568;81;98889;-83
2022/01/16 00:19:09;;;;;;;33.10;13.03;;;;;;;0.27;100.00;101496.46;3573757;81;98906;-83
2022/01/16 00:24:11;;;;;;;36.60;15.27;;;;;;;0.29;100.00;101492.13;3573590;81;99030;-84
2022/01/16 00:29:12;;;;;;;37.10;13.43;;;;;;;0.27;100.00;101478.86;3555609;81;99032;-83
2022/01/16 00:34:13;;;;;;;39.38;14.73;;;;;;;0.24;100.00;101495.66;3566843;81;99098;-83
2022/01/16 00:39:14;;;;;;;32.10;12.60;;;;;;;0.24;100.00;101484.05;3560727;81;99005;-83
2022/01/16 00:44:15;;;;;;;30.77;11.43;;;;;;;0.22;100.00;101447.77;3567254;81;98816;-83
2022/01/16 00:49:16;;;;;;;30.70;12.43;;;;;;;0.23;100.00;101471.60;3554679;81;99070;-83
2022/01/16 00:54:16;;;;;;;30.60;12.43;;;;;;;0.23;100.00;101471.03;3554280;81;98989;-82
2022/01/16 00:59:18;;;;;;;26.97;10.93;;;;;;;0.22;100.00;101459.16;3558120;80;99187;-83
2022/01/16 01:04:18;;;;;;;35.10;12.43;;;;;;;0.20;100.00;101458.09;3569174;81;99093;-83
2022/01/16 01:09:19;;;;;;;30.37;11.57;;;;;;;0.19;100.00;101448.36;3559496;81;98787;-82
2022/01/16 01:14:38;;;;;;;38.80;12.78;;;;;;;0.16;100.00;101438.08;3562459;81;99280;-83
2022/01/16 01:19:33;;;;;;;29.12;10.98;;;;;;;0.17;100.00;101460.55;3563079;81;98858;-83
2022/01/16 01:24:35;;;;;;;24.52;9.95;;;;;;;0.17;100.00;101463.27;3560248;81;99116;-83
2022/01/16 01:29:36;;;;;;;26.82;10.18;;;;;;;0.18;100.00;101427.77;3562221;81;99157;-83
2022/01/16 01:34:37;;;;;;;30.55;12.23;;;;;;;0.21;100.00;101439.92;3566780;81;99096;-83
2022/01/16 01:39:38;;;;;;;37.97;14.27;;;;;;;0.25;100.00;101440.98;3553804;81;99223;-83
2022/01/16 01:55:26;;;;;;;32.73;11.60;;;;;;;0.30;100.00;101314.52;3565616;81;98924;-83
2022/01/16 02:00:27;;;;;;;36.40;11.18;;;;;;;0.35;100.00;101313.64;3568290;80;99129;-83
2022/01/16 02:05:28;;;;;;;27.03;10.57;;;;;;;0.37;100.00;101328.52;3577109;80;99365;-83
2022/01/16 02:10:29;;;;;;;30.83;11.67;;;;;;;0.40;100.00;101359.05;3551708;81;98976;-83
2022/01/16 02:31:24;;;;;;;31.33;10.93;;;;;;;0.39;100.00;101326.31;3578174;81;99498;-83
2022/01/16 02:41:25;;;;;;;34.50;10.67;;;;;;;0.37;100.00;101343.41;3581345;81;99207;-83
2022/01/16 02:51:28;;;;;;;26.00;9.40;;;;;;;0.37;100.00;101343.41;3584107;81;99025;-83
2022/01/16 02:56:29;;;;;;;32.60;11.37;;;;;;;0.39;100.00;101352.59;3579836;81;98713;-83
2022/01/16 03:01:30;;;;;;;31.70;12.10;;;;;;;0.38;100.00;101346.36;3571012;81;98812;-83
2022/01/16 03:06:30;;;;;;;37.43;11.83;;;;;;;0.37;100.00;101320.39;3582544;81;99083;-83
2022/01/16 03:11:35;;;;;;;39.03;11.27;;;;;;;0.37;100.00;101312.80;3578780;81;99498;-83
2022/01/16 03:16:39;;;;;;;29.92;10.38;;;;;;;0.35;100.00;101300.92;3590219;81;99352;-83
2022/01/16 03:21:54;;;;;;;38.33;11.10;;;;;;;0.37;100.00;101301.97;3566971;80;98913;-83
2022/01/16 03:26:59;;;;;;;33.10;9.47;;;;;;;0.35;100.00;101300.11;3551701;80;99115;-83
2022/01/16 03:32:04;;;;;;;24.10;9.23;;;;;;;0.35;100.00;101283.86;3561508;81;98745;-83
2022/01/16 03:37:06;;;;;;;32.75;10.60;;;;;;;0.37;100.00;101265.41;3569271;81;99362;-83
2022/01/16 03:42:07;;;;;;;35.48;9.95;;;;;;;0.37;100.00;101253.23;3567456;81;98946;-83
2022/01/16 03:47:09;;;;;;;24.43;9.15;;;;;;;0.36;100.00;101236.20;3575834;81;98825;-83
2022/01/16 03:52:09;;;;;;;32.20;10.83;;;;;;;0.35;100.00;101226.47;3566075;81;98984;-83
2022/01/16 03:57:10;;;;;;;33.70;10.33;;;;;;;0.35;100.00;101221.59;3562479;81;35181;-83
2022/01/16 04:02:11;;;;;;;25.07;9.47;;;;;;;0.34;100.00;101212.66;3563733;81;98877;-83
2022/01/16 04:07:18;;;;;;;29.70;9.03;;;;;;;0.36;100.00;101210.48;3565846;81;99030;-83
2022/01/16 04:12:20;;;;;;;30.43;9.17;;;;;;;0.37;100.00;101195.02;3531612;81;99477;-83
2022/01/16 04:17:23;;;;;;;32.67;9.20;;;;;;;0.37;100.00;101184.19;3562347;81;98086;-83
2022/01/16 04:22:24;;;;;;;31.68;9.88;;;;;;;0.40;100.00;101191.75;3557601;81;99553;-83
2022/01/16 04:27:25;;;;;;;24.47;8.93;;;;;;;0.41;100.00;101177.92;3570756;81;34654;-83
2022/01/16 04:32:26;;;;;;;29.82;10.90;;;;;;;0.41;100.00;101181.98;3556296;81;99035;-83
2022/01/16 04:37:27;;;;;;;33.00;10.23;;;;;;;0.43;100.00;101168.95;3568336;81;98842;-83
2022/01/16 04:47:50;;;;;;;31.00;9.48;;;;;;;0.44;100.00;101152.17;3560605;81;99017;-83
2022/01/16 04:52:50;;;;;;;32.00;9.33;;;;;;;0.44;100.00;101154.88;3560035;80;98654;-83
2022/01/16 04:57:51;;;;;;;26.17;9.57;;;;;;;0.46;100.00;101148.07;3568955;81;34668;-83
2022/01/16 05:02:52;;;;;;;25.03;7.50;;;;;;;0.48;100.00;101158.05;3544763;81;98588;-83
2022/01/16 05:07:53;;;;;;;24.47;7.90;;;;;;;0.45;100.00;101143.73;3552364;81;98561;-83
2022/01/16 05:12:54;;;;;;;26.53;8.03;;;;;;;0.46;100.00;101138.59;3554379;80;98886;-83
2022/01/16 05:17:55;;;;;;;25.53;8.07;;;;;;;0.47;100.00;101137.48;3546341;81;98931;-83
2022/01/16 05:22:55;;;;;;;32.07;9.77;;;;;;;0.48;100.00;101135.03;3548811;81;98964;-83
2022/01/16 05:27:56;;;;;;;41.00;14.47;;;;;;;0.49;100.00;101131.22;3558475;81;35512;-83
2022/01/16 05:32:57;;;;;;;39.93;15.07;;;;;;;0.49;100.00;101121.74;3548637;81;98906;-83
2022/01/16 05:37:58;;;;;;;33.95;14.93;;;;;;;0.48;100.00;101107.95;3548255;81;98894;-83
2022/01/16 05:42:59;;;;;;;35.10;12.17;;;;;;;0.48;100.00;101094.41;3534872;81;99042;-83
2022/01/16 05:48:00;;;;;;;25.80;8.33;;;;;;;0.46;100.00;101085.79;3545991;81;99332;-83
2022/01/16 05:53:01;;;;;;;24.63;8.40;;;;;;;0.49;100.00;101073.53;3540338;81;98926;-83
2022/01/16 05:58:05;;;;;;;21.87;8.27;;;;;;;0.51;100.00;101074.85;3550565;81;98997;-84
2022/01/16 06:03:08;;;;;;;31.25;7.92;;;;;;;0.54;100.00;101076.98;3551277;81;98247;-83
2022/01/16 06:08:12;;;;;;;28.27;8.10;;;;;;;0.56;100.00;101082.91;3560363;81;98790;-83
2022/01/16 06:13:12;;;;;;;28.40;7.95;;;;;;;0.58;100.00;101071.78;3575486;81;98814;-83
2022/01/16 06:18:14;;;;;;;18.90;8.80;;;;;;;0.59;100.00;101065.25;3584047;81;98883;-83
2022/01/16 06:23:16;;;;;;;21.85;8.03;;;;;;;0.61;100.00;101064.44;3560696;81;98890;-82
2022/01/16 06:28:17;;;;;;;28.57;8.30;;;;;;;0.60;100.00;101061.47;3564849;81;98861;-83
2022/01/16 06:33:18;;;;;;;23.73;8.33;;;;;;;0.63;100.00;101054.91;3570011;81;32402;-83
2022/01/16 06:38:20;;;;;;;23.83;8.67;;;;;;;0.65;100.00;101055.95;3556887;81;99188;-82
2022/01/16 06:43:20;;;;;;;27.90;11.57;;;;;;;0.62;100.00;101046.50;3553828;81;98633;-82
2022/01/16 06:48:22;;;;;;;26.03;9.60;;;;;;;0.57;100.00;101037.14;3569869;81;99101;-83
2022/01/16 06:53:23;;;;;;;21.73;10.20;;;;;;;0.57;100.00;101037.67;3576481;81;98882;-83
2022/01/16 06:58:23;;;;;;;25.33;9.53;;;;;;;0.61;100.00;101032.72;3567313;81;99012;-82
2022/01/16 07:03:24;;;;;;;27.13;10.03;;;;;;;0.65;100.00;101031.03;3576763;81;32213;-82
2022/01/16 07:08:26;;;;;;;31.20;11.67;;;;;;;0.66;100.00;101023.16;3557997;81;99075;-82
2022/01/16 07:13:29;;;;;;;33.60;10.80;;;;;;;0.70;100.00;101022.82;3549228;81;97879;-82
2022/01/16 07:18:29;;;;;;;32.73;11.57;;;;;;;0.71;100.00;101029.06;3540025;81;99106;-82
2022/01/16 07:23:30;;;;;;;29.03;11.53;;;;;;;0.70;100.00;101030.13;3558589;81;98983;-82
2022/01/16 07:28:31;;;;;;;26.57;11.80;;;;;;;0.68;100.00;101023.68;3557986;81;99068;-82
2022/01/16 07:33:32;;;;;;;32.90;10.80;;;;;;;0.70;100.00;101018.76;3574514;81;32937;-83
2022/01/16 07:38:33;;;;;;;28.33;11.10;;;;;;;0.70;100.00;101015.23;3563566;80;99241;-82
2022/01/16 07:43:34;;;;;;;22.97;11.13;;;;;;;0.70;100.00;101022.00;3571052;81;99318;-82
2022/01/16 07:48:35;;;;;;;27.60;11.10;;;;;;;0.70;100.00;101017.94;3558333;81;99050;-82
2022/01/16 07:53:37;;;;;;;31.00;12.13;;;;;;;0.68;100.00;101025.57;3577098;81;99013;-82
2022/01/16 07:58:38;;;;;;;42.25;16.27;;;;;;;0.66;100.00;101031.28;3551704;81;99072;-83
2022/01/16 08:03:38;;;;;;;49.37;19.43;;;;;;;0.65;100.00;101020.20;3574137;81;25932;-82
2022/01/16 08:08:39;;;;;;;47.83;17.23;;;;;;;0.64;100.00;101011.83;3557671;81;99104;-82
2022/01/16 08:13:40;;;;;;;47.83;18.93;;;;;;;0.62;100.00;101015.36;3559591;81;98773;-83
2022/01/16 08:18:41;;;;;;;42.73;16.40;;;;;;;0.65;100.00;101012.07;3553170;81;99063;-82
2022/01/16 08:23:42;;;;;;;48.43;18.13;;;;;;;0.69;100.00;101009.56;3564404;81;99055;-82
2022/01/16 08:28:43;;;;;;;43.23;17.30;;;;;;;0.72;100.00;100984.61;3536791;81;99095;-84
2022/01/16 08:33:43;;;;;;;56.90;21.27;;;;;;;0.76;100.00;101003.20;3542745;82;26167;-83
2022/01/16 08:38:44;;;;;;;42.00;17.97;;;;;;;0.81;100.00;101001.22;3553217;81;99174;-83
2022/01/16 08:43:45;;;;;;;46.73;18.30;;;;;;;0.86;100.00;100993.55;3544302;82;98834;-83
2022/01/16 08:48:48;;;;;;;35.43;16.60;;;;;;;0.89;100.00;100982.13;3555023;81;99328;-83
2022/01/16 08:53:49;;;;;;;37.77;16.50;;;;;;;0.93;100.00;100962.81;3556199;81;99030;-84
2022/01/16 08:58:50;;;;;;;41.53;17.23;;;;;;;0.96;100.00;100971.69;3531755;81;99065;-84
2022/01/16 09:03:51;;;;;;;38.50;16.50;;;;;;;1.01;100.00;100945.30;3554755;82;33816;-83
2022/01/16 09:08:51;;;;;;;43.27;18.70;;;;;;;1.06;100.00;100943.03;3543582;81;99250;-84
2022/01/16 09:13:53;;;;;;;41.23;15.57;;;;;;;1.07;100.00;100932.44;3554547;81;98903;-85
2022/01/16 09:18:54;;;;;;;39.80;16.00;;;;;;;1.12;100.00;100915.53;3551985;81;99038;-83
2022/01/16 09:23:55;;;;;;;35.83;15.30;;;;;;;1.14;100.00;100906.53;3534799;81;99025;-84
2022/01/16 09:28:56;;;;;;;40.90;15.53;;;;;;;1.19;100.00;100904.27;3538096;81;99033;-85
2022/01/16 09:33:57;;;;;;;40.57;16.70;;;;;;;1.23;100.00;100907.44;3519781;80;29993;-84
2022/01/16 09:38:58;;;;;;;42.20;17.15;;;;;;;1.25;100.00;100894.91;3560539;81;98896;-84
2022/01/16 09:44:01;;;;;;;39.90;17.13;;;;;;;1.29;100.00;100893.20;3553425;81;98031;-84
2022/01/16 09:49:04;;;;;;;42.40;17.47;;;;;;;1.36;100.00;100886.80;3549488;81;99348;-84
2022/01/16 09:54:05;;;;;;;47.88;17.95;;;;;;;1.40;100.00;100883.20;3538830;82;99565;-85
2022/01/16 09:59:06;;;;;;;49.50;19.27;;;;;;;1.45;100.00;100874.95;3551069;81;99094;-84
2022/01/16 10:04:39;;;;;;;44.23;18.13;;;;;;;1.50;100.00;100870.77;3551840;82;99157;-84
2022/01/16 10:09:40;;;;;;;47.23;19.83;;;;;;;1.60;100.00;100867.02;3538507;81;98837;-84
2022/01/16 10:14:49;;;;;;;47.53;19.20;;;;;;;1.69;99.63;100854.33;3549237;81;99306;-85
2022/01/16 10:20:03;;;;;;;58.42;22.90;;;;;;;1.74;99.66;100848.22;3551609;81;98789;-87
2022/01/16 10:25:05;;;;;;;47.38;20.43;;;;;;;1.83;99.56;100849.09;3564504;81;99136;-87
2022/01/16 10:30:12;;;;;;;48.17;22.00;;;;;;;1.89;99.25;100842.42;3558447;81;99317;-86
2022/01/16 10:35:21;;;;;;;49.25;19.50;;;;;;;1.97;98.83;100838.16;3547357;81;99195;-86
2022/01/16 10:40:32;;;;;;;41.77;17.90;;;;;;;2.02;99.06;100838.83;3562260;80;99123;-86
2022/01/16 10:45:34;;;;;;;46.02;19.80;;;;;;;2.10;98.86;100828.59;3567621;81;25983;-87
2022/01/16 10:50:39;;;;;;;41.02;17.95;;;;;;;2.15;98.67;100816.23;3569463;81;98884;-87
2022/01/16 10:55:55;;;;;;;44.80;19.27;;;;;;;2.13;97.91;100797.30;3574604;81;98735;-86
2022/01/16 11:01:04;;;;;;;49.77;18.98;;;;;;;2.14;98.46;100790.17;3564143;81;98845;-86
2022/01/16 11:06:05;;;;;;;44.95;20.95;;;;;;;2.16;98.07;100770.86;3575753;80;98844;-86
2022/01/16 11:11:07;;;;;;;47.17;20.67;;;;;;;2.18;98.10;100758.58;3544429;81;99224;-86
2022/01/16 11:16:10;;;;;;;48.35;22.00;;;;;;;2.25;98.46;100746.70;3563140;81;108998;-86
2022/01/16 11:26:14;;;;;;;45.75;20.40;;;;;;;2.39;97.90;100722.14;3558879;81;98598;-87
2022/01/16 11:31:15;;;;;;;49.58;19.67;;;;;;;2.44;97.25;100716.56;3552739;81;98940;-85
2022/01/16 11:36:21;;;;;;;45.60;21.13;;;;;;;2.42;97.37;100710.11;3552000;82;98783;-85
2022/01/16 11:41:33;;;;;;;44.90;19.57;;;;;;;2.50;96.76;100703.89;3548988;80;98961;-85
2022/01/16 11:46:44;;;;;;;48.78;22.02;;;;;;;2.53;97.30;100692.41;3551679;81;98780;-85
2022/01/16 11:51:51;;;;;;;49.63;19.93;;;;;;;2.55;95.85;100686.08;3527824;81;98596;-86
2022/01/16 11:57:05;;;;;;;48.38;21.50;;;;;;;2.53;96.56;100676.10;3549813;81;98373;-84
2022/01/16 12:02:16;;;;;;;41.50;19.90;;;;;;;2.58;96.45;100665.05;3532079;81;98750;-86
2022/01/16 12:07:27;;;;;;;50.40;23.52;;;;;;;2.53;96.23;100650.84;3554007;82;98819;-86
2022/01/16 12:12:33;;;;;;;49.57;22.23;;;;;;;2.53;96.20;100656.28;3543043;81;98827;-85
2022/01/16 12:17:46;;;;;;;48.83;21.17;;;;;;;2.55;96.61;100648.59;3551171;81;99359;-86
2022/01/16 12:22:56;;;;;;;48.87;21.47;;;;;;;2.58;96.31;100644.67;3542046;81;98704;-84
2022/01/16 12:28:11;;;;;;;46.30;19.95;;;;;;;2.58;96.09;100627.59;3488806;83;25702;-86
2022/01/16 12:33:22;;;;;;;46.33;20.23;;;;;;;2.57;95.87;100607.77;3476630;83;98457;-84
2022/01/16 12:38:29;;;;;;;41.90;20.40;;;;;;;2.65;95.94;100615.13;3474355;83;98786;-85
2022/01/16 12:43:39;;;;;;;45.60;20.70;;;;;;;2.70;96.11;100612.81;3481334;83;98921;-85
2022/01/16 12:48:44;;;;;;;48.42;21.90;;;;;;;2.69;95.36;100620.14;3475312;83;98925;-86
2022/01/16 12:54:02;;;;;;;42.83;19.67;;;;;;;2.66;95.26;100609.94;3492829;82;98897;-86
2022/01/16 12:59:23;;;;;;;48.02;20.52;;;;;;;2.62;95.36;100597.32;3462103;82;98815;-86
2022/01/16 13:04:39;;;;;;;43.87;21.17;;;;;;;2.59;94.87;100590.61;3480195;83;99142;-85
2022/01/16 13:09:40;;;;;;;48.30;21.37;;;;;;;2.57;95.32;100595.55;3482219;83;98781;-85
2022/01/16 13:14:43;;;;;;;44.23;21.30;;;;;;;2.56;95.62;100591.81;3480874;82;98677;-85
2022/01/16 13:25:04;;;;;;;49.25;22.25;;;;;;;2.56;95.54;100582.30;3512732;81;98924;-86
2022/01/16 13:30:28;;;;;;;47.87;20.87;;;;;;;2.54;95.51;100588.05;3562607;81;98744;-86
2022/01/16 13:35:31;;;;;;;52.45;24.25;;;;;;;2.53;95.52;100591.08;3564504;81;98987;-85
2022/01/16 13:40:32;;;;;;;50.83;23.95;;;;;;;2.53;95.63;100585.09;3540587;81;98837;-85
2022/01/16 13:45:40;;;;;;;47.43;22.67;;;;;;;2.54;95.83;100586.69;3571252;81;33137;-85
2022/01/16 13:51:02;;;;;;;51.48;22.40;;;;;;;2.55;95.90;100584.75;3551785;81;98625;-85
2022/01/16 13:56:13;;;;;;;42.03;20.62;;;;;;;2.55;95.98;100572.53;3565302;81;98685;-85
2022/01/16 14:01:20;;;;;;;50.88;22.37;;;;;;;2.50;96.14;100561.27;3568762;81;98993;-85
2022/01/16 14:06:24;;;;;;;41.75;20.97;;;;;;;2.49;96.26;100573.27;3561369;80;98799;-85
2022/01/16 14:11:27;;;;;;;46.88;21.10;;;;;;;2.46;96.39;100570.39;3568380;80;98873;-85
2022/01/16 14:22:06;;;;;;;34.27;15.27;;;;;;;2.46;96.79;100571.75;3573173;81;98627;-86
2022/01/16 14:27:21;;;;;;;38.10;16.73;;;;;;;2.46;96.92;100571.17;3571324;81;98644;-85
2022/01/16 14:32:24;;;;;;;34.78;15.25;;;;;;;2.45;96.91;100571.48;3566723;81;99459;-84
2022/01/16 14:37:27;;;;;;;28.73;15.00;;;;;;;2.45;97.16;100585.06;3559436;81;99379;-85
2022/01/16 14:42:37;;;;;;;31.40;14.10;;;;;;;2.45;97.38;100590.50;3547062;81;98304;-85
2022/01/16 14:47:36;;;;;;;31.87;15.70;;;;;;;2.43;97.61;100588.12;3561923;81;98831;-86
2022/01/16 14:52:37;;;;;;;32.17;15.37;;;;;;;2.43;97.95;100592.20;3567459;81;98815;-85
2022/01/16 14:57:40;;;;;;;27.17;14.90;;;;;;;2.44;98.21;100584.84;3567945;81;33116;-85
2022/01/16 15:02:42;;;;;;;33.97;14.67;;;;;;;2.44;98.47;100599.23;3568004;81;98534;-85
2022/01/16 15:07:43;;;;;;;31.83;16.27;;;;;;;2.44;98.59;100606.56;3581203;81;98670;-86
2022/01/16 15:12:46;;;;;;;33.87;14.93;;;;;;;2.40;98.64;100596.90;3561554;81;98885;-86
2022/01/16 15:17:55;;;;;;;36.25;18.52;;;;;;;2.38;98.81;100598.33;3552482;81;98898;-85
2022/01/16 15:22:50;;;;;;;32.08;15.35;;;;;;;2.36;98.91;100616.87;3553437;81;98923;-85
2022/01/16 15:27:52;;;;;;;35.10;15.87;;;;;;;2.31;99.23;100618.38;3551687;81;25942;-84
2022/01/16 15:32:53;;;;;;;38.07;18.70;;;;;;;2.26;99.37;100636.99;3559190;81;98634;-85
2022/01/16 15:37:54;;;;;;;33.23;17.23;;;;;;;2.21;99.39;100639.86;3571504;81;98621;-85
2022/01/16 15:42:55;;;;;;;34.00;18.23;;;;;;;2.20;99.53;100653.73;3570769;80;98774;-85
2022/01/16 15:47:56;;;;;;;32.73;16.97;;;;;;;2.18;99.52;100658.70;3567897;80;99044;-85
2022/01/16 15:52:57;;;;;;;30.00;15.35;;;;;;;2.16;99.57;100654.13;3563923;81;98812;-86
2022/01/16 15:57:58;;;;;;;31.57;16.33;;;;;;;2.11;99.41;100665.94;3575047;81;33543;-84
2022/01/16 16:03:00;;;;;;;37.80;17.77;;;;;;;2.08;99.54;100660.34;3565837;81;98576;-84
2022/01/16 16:08:01;;;;;;;38.60;17.57;;;;;;;2.05;99.42;100652.81;3562684;81;98726;-85
2022/01/16 16:13:03;;;;;;;37.00;17.42;;;;;;;2.02;99.42;100648.03;3563131;81;99003;-85
2022/01/16 16:18:04;;;;;;;37.30;18.70;;;;;;;2.00;99.73;100642.91;3549443;81;98855;-85
2022/01/16 16:23:06;;;;;;;41.17;17.73;;;;;;;1.99;99.97;100645.93;3563346;81;98961;-85
2022/01/16 16:28:07;;;;;;;28.70;14.70;;;;;;;1.95;100.00;100644.41;3561566;81;33488;-85
2022/01/16 16:33:08;;;;;;;33.43;16.03;;;;;;;1.90;100.00;100643.20;3544209;81;98838;-85
2022/01/16 16:38:08;;;;;;;33.50;16.67;;;;;;;1.88;100.00;100647.33;3549500;81;98894;-85
2022/01/16 16:43:09;;;;;;;33.13;16.00;;;;;;;1.86;100.00;100636.78;3532663;81;99099;-85
2022/01/16 16:48:10;;;;;;;34.37;15.27;;;;;;;1.85;100.00;100643.87;3558340;82;99034;-85
2022/01/16 16:53:11;;;;;;;32.83;15.50;;;;;;;1.84;100.00;100644.45;3546406;81;99078;-85
2022/01/16 16:58:12;;;;;;;30.73;14.63;;;;;;;1.82;100.00;100641.27;3554340;81;99029;-85
2022/01/16 17:03:14;;;;;;;43.77;19.50;;;;;;;1.83;100.00;100652.90;3554113;81;98724;-85
2022/01/16 17:08:15;;;;;;;39.88;17.45;;;;;;;1.83;100.00;100645.57;3545936;81;99173;-85
2022/01/16 17:13:16;;;;;;;41.30;18.10;;;;;;;1.81;100.00;100640.22;3561403;81;98176;-85
2022/01/16 17:18:21;;;;;;;38.95;17.65;;;;;;;1.79;100.00;100631.02;3547665;81;105234;-85
2022/01/16 17:23:19;;;;;;;44.67;18.62;;;;;;;1.76;100.00;100618.64;3540763;81;99175;-85
2022/01/16 17:28:20;;;;;;;44.00;18.73;;;;;;;1.76;100.00;100618.64;3558234;81;109755;-85
2022/01/16 17:33:21;;;;;;;37.47;17.77;;;;;;;1.75;100.00;100627.33;3566888;81;31503;-85
2022/01/16 17:38:23;;;;;;;41.70;17.73;;;;;;;1.78;100.00;100621.29;3548727;81;98944;-85
2022/01/16 17:43:24;;;;;;;40.30;16.50;;;;;;;1.80;100.00;100609.55;3571802;81;99098;-84
2022/01/16 17:48:25;;;;;;;36.63;16.03;;;;;;;1.79;100.00;100615.29;3571813;81;99080;-85
2022/01/16 17:53:25;;;;;;;39.20;17.00;;;;;;;1.77;100.00;100614.27;3561283;81;99069;-85
2022/01/16 17:58:28;;;;;;;39.37;17.63;;;;;;;1.78;100.00;100610.44;3569280;81;99065;-84
2022/01/16 18:03:29;;;;;;;33.88;16.05;;;;;;;1.80;100.00;100610.91;3568560;81;32263;-85
2022/01/16 18:08:30;;;;;;;39.00;17.13;;;;;;;1.82;100.00;100609.25;3563760;81;98943;-84
2022/01/16 18:13:31;;;;;;;36.13;16.13;;;;;;;1.83;100.00;100608.94;3570052;81;99080;-84
2022/01/16 18:18:31;;;;;;;37.33;16.07;;;;;;;1.85;100.00;100603.98;3554339;81;99172;-84
2022/01/16 18:23:32;;;;;;;36.15;17.98;;;;;;;1.88;100.00;100609.34;3566197;81;99065;-86
2022/01/16 18:28:33;;;;;;;35.40;16.57;;;;;;;1.90;100.00;100614.70;3569167;81;99020;-86
2022/01/16 18:33:34;;;;;;;34.67;16.97;;;;;;;1.94;100.00;100610.25;3575348;81;34767;-85
2022/01/16 18:38:35;;;;;;;36.97;15.87;;;;;;;1.96;100.00;100610.72;3560247;81;99187;-84
2022/01/16 18:43:36;;;;;;;32.93;16.13;;;;;;;1.98;100.00;100605.77;3588358;81;99031;-86
2022/01/16 18:48:39;;;;;;;30.92;14.35;;;;;;;2.03;100.00;100593.41;3571898;80;98972;-85
2022/01/16 18:53:40;;;;;;;31.37;15.93;;;;;;;2.07;100.00;100592.24;3569871;81;99090;-85
2022/01/16 18:58:40;;;;;;;33.77;16.00;;;;;;;2.10;100.00;100588.33;3535453;81;98963;-85
2022/01/16 19:03:44;;;;;;;36.43;16.10;;;;;;;2.14;100.00;100589.85;3579455;81;34677;-85
2022/01/16 19:08:47;;;;;;;29.23;14.00;;;;;;;2.17;100.00;100586.48;3561314;81;98926;-85
2022/01/16 19:13:48;;;;;;;31.80;16.37;;;;;;;2.23;100.00;100574.34;3560279;81;98935;-85
2022/01/16 19:18:51;;;;;;;33.23;16.10;;;;;;;2.26;100.00;100562.33;3548535;81;98997;-85
2022/01/16 19:23:52;;;;;;;33.35;17.23;;;;;;;2.29;100.00;100566.31;3569689;81;99072;-85
2022/01/16 19:28:53;;;;;;;36.47;17.77;;;;;;;2.34;100.00;100572.92;3557853;81;98564;-86
2022/01/16 19:33:57;;;;;;;44.37;19.40;;;;;;;2.39;100.00;100579.56;3557086;81;34915;-85
2022/01/16 19:38:58;;;;;;;42.17;19.90;;;;;;;2.44;100.00;100586.19;3545719;81;99126;-85
2022/01/16 19:43:59;;;;;;;46.30;20.50;;;;;;;2.48;100.00;100586.61;3556615;81;98924;-86
2022/01/16 19:49:00;;;;;;;43.60;21.27;;;;;;;2.52;100.00;100591.62;3562003;80;99076;-85
2022/01/16 19:54:02;;;;;;;41.97;19.70;;;;;;;2.55;100.00;100576.06;3570662;81;98955;-86
2022/01/16 19:59:03;;;;;;;38.17;20.25;;;;;;;2.60;100.00;100580.52;3564714;80;99044;-85
2022/01/16 20:04:04;;;;;;;47.50;20.60;;;;;;;2.63;100.00;100582.61;3568477;81;34661;-85
2022/01/16 20:09:05;;;;;;;48.95;22.32;;;;;;;2.66;100.00;100580.05;3575751;81;98889;-85
2022/01/16 20:14:06;;;;;;;39.20;20.50;;;;;;;2.72;100.00;100590.17;3570650;81;99378;-85
2022/01/16 20:19:07;;;;;;;47.67;22.13;;;;;;;2.74;100.00;100571.66;3551567;81;99054;-84
2022/01/16 20:24:08;;;;;;;43.97;21.27;;;;;;;2.76;100.00;100565.33;3577314;81;99112;-86
2022/01/16 20:29:09;;;;;;;45.10;22.23;;;;;;;2.79;100.00;100574.98;3575653;80;98980;-85
2022/01/16 20:34:10;;;;;;;48.20;21.13;;;;;;;2.82;100.00;100567.56;3596537;81;34649;-84
2022/01/16 20:39:11;;;;;;;46.40;22.03;;;;;;;2.85;100.00;100577.78;3573715;81;98778;-84
2022/01/16 20:44:12;;;;;;;50.88;23.30;;;;;;;2.88;100.00;100568.99;3585590;81;98934;-86
2022/01/16 20:49:13;;;;;;;42.98;22.25;;;;;;;2.91;100.00;100551.24;3584011;81;99445;-85
2022/01/16 20:54:14;;;;;;;47.90;22.20;;;;;;;2.94;100.00;100554.66;3574403;81;98987;-85
2022/01/16 20:59:14;;;;;;;50.27;21.90;;;;;;;2.98;100.00;100582.25;3583930;81;99353;-86
2022/01/16 21:04:15;;;;;;;47.60;23.10;;;;;;;3.01;100.00;100584.30;3586115;81;32301;-85
2022/01/16 21:09:16;;;;;;;49.80;22.23;;;;;;;3.04;100.00;100571.44;3583665;81;98785;-85
2022/01/16 21:14:20;;;;;;;47.33;23.87;;;;;;;3.06;100.00;100562.97;3583423;80;99355;-86
2022/01/16 21:19:21;;;;;;;46.63;23.23;;;;;;;3.09;100.00;100558.22;3572675;81;99443;-85
2022/01/16 21:24:22;;;;;;;51.73;23.63;;;;;;;3.13;100.00;100572.23;3587503;81;99473;-85
2022/01/16 21:29:23;;;;;;;45.67;21.97;;;;;;;3.16;100.00;100571.56;3573570;81;99421;-86
2022/01/16 21:34:24;;;;;;;49.80;23.43;;;;;;;3.21;100.00;100570.03;3569417;81;99498;-86
2022/01/16 21:39:25;;;;;;;47.63;21.83;;;;;;;3.25;100.00;100553.86;3568317;81;99004;-86
2022/01/16 21:44:26;;;;;;;48.10;21.63;;;;;;;3.28;100.00;100549.92;3556298;81;98877;-86
2022/01/16 21:49:27;;;;;;;54.23;24.10;;;;;;;3.32;100.00;100546.80;3562262;81;99498;-86
2022/01/16 21:54:28;;;;;;;45.23;21.63;;;;;;;3.37;100.00;100536.29;3562484;80;99480;-85
2022/01/16 21:59:29;;;;;;;48.53;22.30;;;;;;;3.41;100.00;100511.39;3566313;81;98860;-87
2022/01/16 22:04:32;;;;;;;45.90;21.07;;;;;;;3.46;100.00;100511.21;3569587;81;98835;-86
2022/01/16 22:09:32;;;;;;;42.03;21.70;;;;;;;3.50;100.00;100516.24;3564218;81;99046;-85
2022/01/16 22:14:34;;;;;;;44.93;21.37;;;;;;;3.54;100.00;100511.17;3570217;81;98886;-85
2022/01/16 22:19:35;;;;;;;47.43;21.70;;;;;;;3.57;100.00;100487.39;3568206;80;99472;-85
2022/01/16 22:24:36;;;;;;;49.38;22.55;;;;;;;3.61;100.00;100510.66;3574079;81;99096;-85
2022/01/16 22:29:38;;;;;;;42.53;20.87;;;;;;;3.62;100.00;100488.57;3567126;81;99348;-86
2022/01/16 22:34:39;;;;;;;48.43;22.37;;;;;;;3.66;100.00;100494.92;3567972;81;99017;-86
2022/01/16 22:39:48;;;;;;;46.67;20.80;;;;;;;3.70;100.00;100502.67;3560563;81;98845;-85
2022/01/16 22:44:46;;;;;;;44.00;20.88;;;;;;;3.73;100.00;100508.02;3580247;81;99339;-85
2022/01/16 22:49:49;;;;;;;45.37;19.93;;;;;;;3.75;100.00;100483.98;3564727;81;99364;-85
2022/01/16 22:54:50;;;;;;;44.55;21.15;;;;;;;3.78;100.00;100469.73;3558581;81;99495;-85
2022/01/16 22:59:51;;;;;;;43.17;21.10;;;;;;;3.80;100.00;100457.94;3552500;80;99460;-86
2022/01/16 23:04:52;;;;;;;50.27;22.37;;;;;;;3.82;100.00;100459.20;3551343;81;99335;-87
2022/01/16 23:09:52;;;;;;;42.43;20.70;;;;;;;3.85;100.00;100452.30;3541520;81;98896;-84
2022/01/16 23:14:56;;;;;;;42.73;22.00;;;;;;;3.87;100.00;100445.98;3569223;81;99327;-85
2022/01/16 23:19:57;;;;;;;44.08;21.07;;;;;;;3.88;100.00;100434.73;3566644;81;99494;-85
2022/01/16 23:24:59;;;;;;;45.10;20.67;;;;;;;3.93;100.00;100439.98;3566877;81;99605;-85
2022/01/16 23:29:59;;;;;;;45.07;21.27;;;;;;;3.93;100.00;100429.09;3566405;81;99066;-85
2022/01/16 23:35:00;;;;;;;43.90;22.10;;;;;;;3.94;100.00;100410.26;3585219;81;99487;-85
2022/01/16 23:40:03;;;;;;;43.43;21.63;;;;;;;3.98;100.00;100407.11;3589710;81;98911;-86
2022/01/16 23:45:07;;;;;;;41.17;19.93;;;;;;;4.02;100.00;100404.51;3580636;81;99343;-85
2022/01/16 23:50:10;;;;;;;38.65;18.85;;;;;;;4.03;100.00;100385.67;3583091;81;99290;-85
2022/01/16 23:55:11;;;;;;;39.60;19.85;;;;;;;4.06;100.00;100388.55;3577675;81;99557;-85
